logo dgac
Viernes 17 de Agosto del 2018
Buscar por aerodromo o helipuerto
Ingrese nombre de aeródromo, localidad o designador OACI:
METAR del 18-08-2018 a las 02:00 UTC
METAR SCIE 180200Z 23011KT 9999 SCT020 BKN030 10/08 Q1025 RESHRA
Viento: dirección 230 grados, velocidad 11 nudos
Visibilidad: 10 km o más
Nubes: Nubosidad parcial a 2000 pies sobre el nivel del aeródromo
Nubes: Nublado a 3000 pies sobre el nivel del aeródromo
Temperatura: 10 °C
Rocío: 8 °C
Humedad_relativa: 87%
Presión: 1025 hPa
Se observó recientemente ChubascosLluvia
METAR del 18-08-2018 a las 01:00 UTC
METAR SCIE 180100Z 06003KT 9999 SCT040 10/09 Q1025
Viento: dirección 060 grados, velocidad 3 nudos
Visibilidad: 10 km o más
Nubes: Nubosidad parcial a 4000 pies sobre el nivel del aeródromo
Temperatura: 10 °C
Rocío: 9 °C
Humedad_relativa: 94%
Presión: 1025 hPa
METAR del 18-08-2018 a las 00:00 UTC
METAR SCIE 180000Z 12003KT 040V160 9999 SCT037 11/09 Q1024
Viento: dirección 120 grados, velocidad 3 nudos
Viento con dirección variable entre 040 y 160 grados
Visibilidad: 10 km o más
Nubes: Nubosidad parcial a 3700 pies sobre el nivel del aeródromo
Temperatura: 11 °C
Rocío: 9 °C
Humedad_relativa: 87%
Presión: 1024 hPa
METAR del 17-08-2018 a las 23:00 UTC
METAR SCIE 172300Z 27005KT 9999 FEW040 11/09 Q1023
Viento: dirección 270 grados, velocidad 5 nudos
Visibilidad: 10 km o más
Nubes: Escasa nubosidad a 4000 pies sobre el nivel del aeródromo
Temperatura: 11 °C
Rocío: 9 °C
Humedad_relativa: 87%
Presión: 1023 hPa
METAR del 17-08-2018 a las 22:00 UTC
METAR SCIE 172200Z 24008KT 9999 FEW010 BKN040 12/10 Q1023
Viento: dirección 240 grados, velocidad 8 nudos
Visibilidad: 10 km o más
Nubes: Escasa nubosidad a 1000 pies sobre el nivel del aeródromo
Nubes: Nublado a 4000 pies sobre el nivel del aeródromo
Temperatura: 12 °C
Rocío: 10 °C
Humedad_relativa: 88%
Presión: 1023 hPa
METAR del 17-08-2018 a las 22:00 UTC
METAR SCIE 172200Z 24008KT 9999 FEW010 BKN040 12/10 Q1023
Viento: dirección 240 grados, velocidad 8 nudos
Visibilidad: 10 km o más
Nubes: Escasa nubosidad a 1000 pies sobre el nivel del aeródromo
Nubes: Nublado a 4000 pies sobre el nivel del aeródromo
Temperatura: 12 °C
Rocío: 10 °C
Humedad_relativa: 88%
Presión: 1023 hPa
METAR del 17-08-2018 a las 21:00 UTC
METAR SCIE 172100Z 24011KT 9999 SCT011 BKN015 13/11 Q1022
Viento: dirección 240 grados, velocidad 11 nudos
Visibilidad: 10 km o más
Nubes: Nubosidad parcial a 1100 pies sobre el nivel del aeródromo
Nubes: Nublado a 1500 pies sobre el nivel del aeródromo
Temperatura: 13 °C
Rocío: 11 °C
Humedad_relativa: 88%
Presión: 1022 hPa
METAR del 17-08-2018 a las 20:00 UTC
METAR SCIE 172000Z 25009KT 9999 SCT010 BKN038 14/11 Q1021
Viento: dirección 250 grados, velocidad 9 nudos
Visibilidad: 10 km o más
Nubes: Nubosidad parcial a 1000 pies sobre el nivel del aeródromo
Nubes: Nublado a 3800 pies sobre el nivel del aeródromo
Temperatura: 14 °C
Rocío: 11 °C
Humedad_relativa: 82%
Presión: 1021 hPa
METAR del 17-08-2018 a las 19:00 UTC
METAR SCIE 171900Z 26010KT 9999 SCT015 BKN030 14/11 Q1021
Viento: dirección 260 grados, velocidad 10 nudos
Visibilidad: 10 km o más
Nubes: Nubosidad parcial a 1500 pies sobre el nivel del aeródromo
Nubes: Nublado a 3000 pies sobre el nivel del aeródromo
Temperatura: 14 °C
Rocío: 11 °C
Humedad_relativa: 82%
Presión: 1021 hPa
SPECI del 17-08-2018 a las 18:04 UTC
SPECI SCIE 171804Z 24005KT 8000 SCT006 BKN027 13/12 Q1021
Viento: dirección 240 grados, velocidad 5 nudos
Visibilidad: 8000 metros
Nubes: Nubosidad parcial a 600 pies sobre el nivel del aeródromo
Nubes: Nublado a 2700 pies sobre el nivel del aeródromo
Temperatura: 13 °C
Rocío: 12 °C
Humedad_relativa: 94%
Presión: 1021 hPa